sensor_id;sensor_type;location;lat;lon;timestamp;temperature;humidity
7290;DHT22;63176;52.678;13.250;2023-04-15T00:00:36;8.80;99.90
7290;DHT22;63176;52.678;13.250;2023-04-15T00:03:02;8.80;99.90
7290;DHT22;63176;52.678;13.250;2023-04-15T00:05:29;8.80;99.90
7290;DHT22;63176;52.678;13.250;2023-04-15T00:07:56;8.80;99.90
7290;DHT22;63176;52.678;13.250;2023-04-15T00:10:22;8.80;99.90
7290;DHT22;63176;52.678;13.250;2023-04-15T00:12:47;8.80;99.90
7290;DHT22;63176;52.678;13.250;2023-04-15T00:15:13;8.70;99.90
7290;DHT22;63176;52.678;13.250;2023-04-15T00:17:39;8.70;99.90
7290;DHT22;63176;52.678;13.250;2023-04-15T00:20:05;8.70;99.90
7290;DHT22;63176;52.678;13.250;2023-04-15T00:22:31;8.70;99.90
7290;DHT22;63176;52.678;13.250;2023-04-15T00:24:57;8.70;99.90
7290;DHT22;63176;52.678;13.250;2023-04-15T00:27:23;8.80;99.90
7290;DHT22;63176;52.678;13.250;2023-04-15T00:29:48;8.80;99.90
7290;DHT22;63176;52.678;13.250;2023-04-15T00:32:14;8.70;99.90
7290;DHT22;63176;52.678;13.250;2023-04-15T00:34:40;8.70;99.90
7290;DHT22;63176;52.678;13.250;2023-04-15T00:37:06;8.70;99.90
7290;DHT22;63176;52.678;13.250;2023-04-15T00:39:31;8.70;99.90
7290;DHT22;63176;52.678;13.250;2023-04-15T00:41:57;8.70;99.90
7290;DHT22;63176;52.678;13.250;2023-04-15T00:44:23;8.70;99.90
7290;DHT22;63176;52.678;13.250;2023-04-15T00:46:50;8.60;99.90
7290;DHT22;63176;52.678;13.250;2023-04-15T00:49:16;8.90;99.90
7290;DHT22;63176;52.678;13.250;2023-04-15T00:51:45;8.70;99.90
7290;DHT22;63176;52.678;13.250;2023-04-15T00:54:10;8.70;99.90
7290;DHT22;63176;52.678;13.250;2023-04-15T00:56:38;8.70;99.90
7290;DHT22;63176;52.678;13.250;2023-04-15T00:59:05;8.70;99.90
7290;DHT22;63176;52.678;13.250;2023-04-15T01:01:36;8.70;99.90
7290;DHT22;63176;52.678;13.250;2023-04-15T01:04:02;8.70;99.90
7290;DHT22;63176;52.678;13.250;2023-04-15T01:06:30;8.70;99.90
7290;DHT22;63176;52.678;13.250;2023-04-15T01:12:19;8.70;99.90
7290;DHT22;63176;52.678;13.250;2023-04-15T01:14:45;8.70;99.90
7290;DHT22;63176;52.678;13.250;2023-04-15T01:17:10;8.60;99.90
7290;DHT22;63176;52.678;13.250;2023-04-15T01:19:37;8.70;99.90
7290;DHT22;63176;52.678;13.250;2023-04-15T01:22:03;8.70;99.90
7290;DHT22;63176;52.678;13.250;2023-04-15T01:24:31;8.90;99.90
7290;DHT22;63176;52.678;13.250;2023-04-15T01:26:57;8.70;99.90
7290;DHT22;63176;52.678;13.250;2023-04-15T01:29:23;8.80;99.90
7290;DHT22;63176;52.678;13.250;2023-04-15T01:31:50;8.70;99.90
7290;DHT22;63176;52.678;13.250;2023-04-15T01:34:16;8.70;99.90
7290;DHT22;63176;52.678;13.250;2023-04-15T01:36:42;8.70;99.90
7290;DHT22;63176;52.678;13.250;2023-04-15T01:39:08;8.70;99.90
7290;DHT22;63176;52.678;13.250;2023-04-15T01:41:33;8.70;99.90
7290;DHT22;63176;52.678;13.250;2023-04-15T01:43:59;8.60;99.90
7290;DHT22;63176;52.678;13.250;2023-04-15T01:46:25;8.70;99.90
7290;DHT22;63176;52.678;13.250;2023-04-15T01:48:50;8.70;99.90
7290;DHT22;63176;52.678;13.250;2023-04-15T01:51:16;8.60;99.90
7290;DHT22;63176;52.678;13.250;2023-04-15T01:53:42;8.70;99.90
7290;DHT22;63176;52.678;13.250;2023-04-15T01:56:07;8.70;99.90
7290;DHT22;63176;52.678;13.250;2023-04-15T01:58:33;8.80;99.90
7290;DHT22;63176;52.678;13.250;2023-04-15T02:00:59;8.70;99.90
7290;DHT22;63176;52.678;13.250;2023-04-15T02:03:24;8.70;99.90
7290;DHT22;63176;52.678;13.250;2023-04-15T02:05:50;8.70;99.90
7290;DHT22;63176;52.678;13.250;2023-04-15T02:08:16;8.90;99.90
7290;DHT22;63176;52.678;13.250;2023-04-15T02:10:42;8.70;99.90
7290;DHT22;63176;52.678;13.250;2023-04-15T02:13:08;8.90;99.90
7290;DHT22;63176;52.678;13.250;2023-04-15T02:15:33;8.90;99.90
7290;DHT22;63176;52.678;13.250;2023-04-15T02:18:18;8.70;99.90
7290;DHT22;63176;52.678;13.250;2023-04-15T02:20:43;8.70;99.90
7290;DHT22;63176;52.678;13.250;2023-04-15T02:23:09;8.80;99.90
7290;DHT22;63176;52.678;13.250;2023-04-15T02:25:36;8.70;99.90
7290;DHT22;63176;52.678;13.250;2023-04-15T02:28:04;8.70;99.90
7290;DHT22;63176;52.678;13.250;2023-04-15T02:30:30;8.70;99.90
7290;DHT22;63176;52.678;13.250;2023-04-15T02:32:56;8.80;99.90
7290;DHT22;63176;52.678;13.250;2023-04-15T02:35:22;8.70;99.90
7290;DHT22;63176;52.678;13.250;2023-04-15T02:37:50;9.00;99.90
7290;DHT22;63176;52.678;13.250;2023-04-15T02:40:16;8.70;99.90
7290;DHT22;63176;52.678;13.250;2023-04-15T02:42:42;8.70;99.90
7290;DHT22;63176;52.678;13.250;2023-04-15T02:45:09;8.70;99.90
7290;DHT22;63176;52.678;13.250;2023-04-15T02:47:36;8.70;99.90
7290;DHT22;63176;52.678;13.250;2023-04-15T02:50:06;8.70;99.90
7290;DHT22;63176;52.678;13.250;2023-04-15T02:52:32;8.70;99.90
7290;DHT22;63176;52.678;13.250;2023-04-15T02:54:57;8.70;99.90
7290;DHT22;63176;52.678;13.250;2023-04-15T02:57:27;8.70;99.90
7290;DHT22;63176;52.678;13.250;2023-04-15T02:59:56;8.60;99.90
7290;DHT22;63176;52.678;13.250;2023-04-15T03:02:21;8.70;99.90
7290;DHT22;63176;52.678;13.250;2023-04-15T03:04:47;8.90;99.90
7290;DHT22;63176;52.678;13.250;2023-04-15T03:07:13;8.80;99.90
7290;DHT22;63176;52.678;13.250;2023-04-15T03:09:39;8.70;99.90
7290;DHT22;63176;52.678;13.250;2023-04-15T03:12:05;8.70;99.90
7290;DHT22;63176;52.678;13.250;2023-04-15T03:14:31;8.90;99.90
7290;DHT22;63176;52.678;13.250;2023-04-15T03:16:57;8.70;99.90
7290;DHT22;63176;52.678;13.250;2023-04-15T03:19:24;8.80;99.90
7290;DHT22;63176;52.678;13.250;2023-04-15T03:21:49;8.80;99.90
7290;DHT22;63176;52.678;13.250;2023-04-15T03:24:16;9.00;99.90
7290;DHT22;63176;52.678;13.250;2023-04-15T03:26:42;8.80;99.90
7290;DHT22;63176;52.678;13.250;2023-04-15T03:29:08;8.80;99.90
7290;DHT22;63176;52.678;13.250;2023-04-15T03:31:33;9.00;99.90
7290;DHT22;63176;52.678;13.250;2023-04-15T03:33:59;8.80;99.90
7290;DHT22;63176;52.678;13.250;2023-04-15T03:36:24;9.00;99.90
7290;DHT22;63176;52.678;13.250;2023-04-15T03:38:50;8.80;99.90
7290;DHT22;63176;52.678;13.250;2023-04-15T03:41:16;8.80;99.90
7290;DHT22;63176;52.678;13.250;2023-04-15T03:43:41;8.70;99.90
7290;DHT22;63176;52.678;13.250;2023-04-15T03:46:07;8.90;99.90
7290;DHT22;63176;52.678;13.250;2023-04-15T03:48:32;8.70;99.90
7290;DHT22;63176;52.678;13.250;2023-04-15T03:50:58;8.80;99.90
7290;DHT22;63176;52.678;13.250;2023-04-15T03:53:23;8.70;99.90
7290;DHT22;63176;52.678;13.250;2023-04-15T03:55:49;8.80;99.90
7290;DHT22;63176;52.678;13.250;2023-04-15T03:58:15;8.90;99.90
7290;DHT22;63176;52.678;13.250;2023-04-15T04:00:40;8.80;99.90
7290;DHT22;63176;52.678;13.250;2023-04-15T04:03:06;8.80;99.90
7290;DHT22;63176;52.678;13.250;2023-04-15T04:05:32;8.90;99.90
7290;DHT22;63176;52.678;13.250;2023-04-15T04:07:58;8.80;99.90
7290;DHT22;63176;52.678;13.250;2023-04-15T04:10:23;8.80;99.90
7290;DHT22;63176;52.678;13.250;2023-04-15T04:12:49;8.80;99.90
7290;DHT22;63176;52.678;13.250;2023-04-15T04:15:14;8.70;99.90
7290;DHT22;63176;52.678;13.250;2023-04-15T04:17:40;8.80;99.90
7290;DHT22;63176;52.678;13.250;2023-04-15T04:20:07;8.90;99.90
7290;DHT22;63176;52.678;13.250;2023-04-15T04:22:37;8.80;99.90
7290;DHT22;63176;52.678;13.250;2023-04-15T04:25:03;8.80;99.90
7290;DHT22;63176;52.678;13.250;2023-04-15T04:27:28;8.80;99.90
7290;DHT22;63176;52.678;13.250;2023-04-15T04:29:54;8.90;99.90
7290;DHT22;63176;52.678;13.250;2023-04-15T04:32:20;8.90;99.90
7290;DHT22;63176;52.678;13.250;2023-04-15T04:34:46;8.90;99.90
7290;DHT22;63176;52.678;13.250;2023-04-15T04:37:12;9.00;99.90
7290;DHT22;63176;52.678;13.250;2023-04-15T04:39:38;8.90;99.90
7290;DHT22;63176;52.678;13.250;2023-04-15T04:42:04;8.90;99.90
7290;DHT22;63176;52.678;13.250;2023-04-15T04:44:30;9.10;99.90
7290;DHT22;63176;52.678;13.250;2023-04-15T04:46:55;8.90;99.90
7290;DHT22;63176;52.678;13.250;2023-04-15T04:49:21;9.10;99.90
7290;DHT22;63176;52.678;13.250;2023-04-15T04:51:46;8.90;99.90
7290;DHT22;63176;52.678;13.250;2023-04-15T04:54:13;8.90;99.90
7290;DHT22;63176;52.678;13.250;2023-04-15T04:56:38;8.90;99.90
7290;DHT22;63176;52.678;13.250;2023-04-15T04:59:04;8.80;99.90
7290;DHT22;63176;52.678;13.250;2023-04-15T05:01:31;8.90;99.90
7290;DHT22;63176;52.678;13.250;2023-04-15T05:03:57;9.00;99.90
7290;DHT22;63176;52.678;13.250;2023-04-15T05:06:22;8.90;99.90
7290;DHT22;63176;52.678;13.250;2023-04-15T05:08:48;9.00;99.90
7290;DHT22;63176;52.678;13.250;2023-04-15T05:11:13;8.90;99.90
7290;DHT22;63176;52.678;13.250;2023-04-15T05:13:39;9.00;99.90
7290;DHT22;63176;52.678;13.250;2023-04-15T05:16:05;9.20;99.90
7290;DHT22;63176;52.678;13.250;2023-04-15T05:18:30;9.00;99.90
7290;DHT22;63176;52.678;13.250;2023-04-15T05:20:56;9.10;99.90
7290;DHT22;63176;52.678;13.250;2023-04-15T05:23:22;9.30;99.90
7290;DHT22;63176;52.678;13.250;2023-04-15T05:25:48;9.10;99.90
7290;DHT22;63176;52.678;13.250;2023-04-15T05:28:13;9.20;99.90
7290;DHT22;63176;52.678;13.250;2023-04-15T05:30:39;9.10;99.90
7290;DHT22;63176;52.678;13.250;2023-04-15T05:33:05;9.20;99.90
7290;DHT22;63176;52.678;13.250;2023-04-15T05:35:30;9.40;99.90
7290;DHT22;63176;52.678;13.250;2023-04-15T05:37:56;9.30;99.90
7290;DHT22;63176;52.678;13.250;2023-04-15T05:40:21;9.30;99.90
7290;DHT22;63176;52.678;13.250;2023-04-15T05:42:47;9.50;99.90
7290;DHT22;63176;52.678;13.250;2023-04-15T05:45:13;9.50;99.90
7290;DHT22;63176;52.678;13.250;2023-04-15T05:47:39;9.30;99.90
7290;DHT22;63176;52.678;13.250;2023-04-15T05:50:05;9.40;99.90
7290;DHT22;63176;52.678;13.250;2023-04-15T05:52:31;9.40;99.90
7290;DHT22;63176;52.678;13.250;2023-04-15T05:54:56;9.60;99.90
7290;DHT22;63176;52.678;13.250;2023-04-15T05:57:22;9.50;99.90
7290;DHT22;63176;52.678;13.250;2023-04-15T05:59:48;9.70;99.90
7290;DHT22;63176;52.678;13.250;2023-04-15T06:02:13;9.40;99.90
7290;DHT22;63176;52.678;13.250;2023-04-15T06:04:39;9.50;99.90
7290;DHT22;63176;52.678;13.250;2023-04-15T06:07:05;9.70;99.90
7290;DHT22;63176;52.678;13.250;2023-04-15T06:09:31;9.60;99.90
7290;DHT22;63176;52.678;13.250;2023-04-15T06:11:57;9.60;99.90
7290;DHT22;63176;52.678;13.250;2023-04-15T06:14:23;9.70;99.90
7290;DHT22;63176;52.678;13.250;2023-04-15T06:16:49;9.70;99.90
7290;DHT22;63176;52.678;13.250;2023-04-15T06:19:14;9.90;99.90
7290;DHT22;63176;52.678;13.250;2023-04-15T06:21:40;9.80;99.90
7290;DHT22;63176;52.678;13.250;2023-04-15T06:24:06;9.90;99.90
7290;DHT22;63176;52.678;13.250;2023-04-15T06:26:31;10.10;99.90
7290;DHT22;63176;52.678;13.250;2023-04-15T06:28:57;9.90;99.90
7290;DHT22;63176;52.678;13.250;2023-04-15T06:31:23;10.00;99.90
7290;DHT22;63176;52.678;13.250;2023-04-15T06:33:48;9.90;99.90
7290;DHT22;63176;52.678;13.250;2023-04-15T06:36:14;10.10;99.90
7290;DHT22;63176;52.678;13.250;2023-04-15T06:38:40;10.20;99.90
7290;DHT22;63176;52.678;13.250;2023-04-15T06:41:06;10.20;99.90
7290;DHT22;63176;52.678;13.250;2023-04-15T06:43:31;10.30;99.90
7290;DHT22;63176;52.678;13.250;2023-04-15T06:45:57;10.40;99.90
7290;DHT22;63176;52.678;13.250;2023-04-15T06:48:23;10.50;99.90
7290;DHT22;63176;52.678;13.250;2023-04-15T06:50:49;10.50;99.90
7290;DHT22;63176;52.678;13.250;2023-04-15T06:53:15;10.60;99.90
7290;DHT22;63176;52.678;13.250;2023-04-15T06:55:40;10.80;99.90
7290;DHT22;63176;52.678;13.250;2023-04-15T06:58:06;10.90;99.90
7290;DHT22;63176;52.678;13.250;2023-04-15T07:00:32;10.70;99.90
7290;DHT22;63176;52.678;13.250;2023-04-15T07:02:58;10.80;99.90
7290;DHT22;63176;52.678;13.250;2023-04-15T07:05:30;10.80;99.90
7290;DHT22;63176;52.678;13.250;2023-04-15T07:07:56;11.10;99.90
7290;DHT22;63176;52.678;13.250;2023-04-15T07:10:22;11.10;99.90
7290;DHT22;63176;52.678;13.250;2023-04-15T07:12:48;11.20;99.90
7290;DHT22;63176;52.678;13.250;2023-04-15T07:15:15;11.20;99.90
7290;DHT22;63176;52.678;13.250;2023-04-15T07:17:41;11.30;99.90
7290;DHT22;63176;52.678;13.250;2023-04-15T07:20:08;11.30;99.90
7290;DHT22;63176;52.678;13.250;2023-04-15T07:22:34;11.20;99.90
7290;DHT22;63176;52.678;13.250;2023-04-15T07:25:00;11.30;99.90
7290;DHT22;63176;52.678;13.250;2023-04-15T07:27:25;11.30;99.90
7290;DHT22;63176;52.678;13.250;2023-04-15T07:29:51;11.40;99.90
7290;DHT22;63176;52.678;13.250;2023-04-15T07:32:17;11.30;99.90
7290;DHT22;63176;52.678;13.250;2023-04-15T07:34:43;11.20;99.90
7290;DHT22;63176;52.678;13.250;2023-04-15T07:37:09;11.10;99.90
7290;DHT22;63176;52.678;13.250;2023-04-15T07:39:34;11.20;99.90
7290;DHT22;63176;52.678;13.250;2023-04-15T07:42:01;11.00;99.90
7290;DHT22;63176;52.678;13.250;2023-04-15T07:44:28;11.10;99.90
7290;DHT22;63176;52.678;13.250;2023-04-15T07:46:54;10.80;99.90
7290;DHT22;63176;52.678;13.250;2023-04-15T07:49:19;10.80;99.90
7290;DHT22;63176;52.678;13.250;2023-04-15T07:51:46;11.00;99.90
7290;DHT22;63176;52.678;13.250;2023-04-15T07:54:11;10.80;99.90
7290;DHT22;63176;52.678;13.250;2023-04-15T07:56:37;10.70;99.90
7290;DHT22;63176;52.678;13.250;2023-04-15T07:59:02;10.90;99.90
7290;DHT22;63176;52.678;13.250;2023-04-15T08:01:29;10.60;99.90
7290;DHT22;63176;52.678;13.250;2023-04-15T08:03:56;11.00;99.90
7290;DHT22;63176;52.678;13.250;2023-04-15T08:06:22;10.80;99.90
7290;DHT22;63176;52.678;13.250;2023-04-15T08:08:47;10.80;99.90
7290;DHT22;63176;52.678;13.250;2023-04-15T08:11:13;10.90;99.90
7290;DHT22;63176;52.678;13.250;2023-04-15T08:13:39;10.90;99.90
7290;DHT22;63176;52.678;13.250;2023-04-15T08:16:24;10.90;99.90
7290;DHT22;63176;52.678;13.250;2023-04-15T08:18:54;10.90;99.90
7290;DHT22;63176;52.678;13.250;2023-04-15T08:21:20;10.70;99.90
7290;DHT22;63176;52.678;13.250;2023-04-15T08:23:47;11.00;99.90
7290;DHT22;63176;52.678;13.250;2023-04-15T08:26:13;10.80;99.90
7290;DHT22;63176;52.678;13.250;2023-04-15T08:28:43;10.90;99.90
7290;DHT22;63176;52.678;13.250;2023-04-15T08:31:08;10.80;99.90
7290;DHT22;63176;52.678;13.250;2023-04-15T08:33:34;11.00;99.90
7290;DHT22;63176;52.678;13.250;2023-04-15T08:36:00;10.70;99.90
7290;DHT22;63176;52.678;13.250;2023-04-15T08:38:25;11.10;99.90
7290;DHT22;63176;52.678;13.250;2023-04-15T08:40:51;10.90;99.90
7290;DHT22;63176;52.678;13.250;2023-04-15T08:43:22;10.90;99.90
7290;DHT22;63176;52.678;13.250;2023-04-15T08:45:54;10.80;99.90
7290;DHT22;63176;52.678;13.250;2023-04-15T08:48:20;11.00;99.90
7290;DHT22;63176;52.678;13.250;2023-04-15T08:50:47;11.10;99.90
7290;DHT22;63176;52.678;13.250;2023-04-15T08:53:14;11.00;99.90
7290;DHT22;63176;52.678;13.250;2023-04-15T08:55:44;11.10;99.90
7290;DHT22;63176;52.678;13.250;2023-04-15T08:58:11;11.10;99.90
7290;DHT22;63176;52.678;13.250;2023-04-15T09:00:38;11.10;99.90
7290;DHT22;63176;52.678;13.250;2023-04-15T09:03:04;11.20;99.90
7290;DHT22;63176;52.678;13.250;2023-04-15T09:05:35;11.20;99.90
7290;DHT22;63176;52.678;13.250;2023-04-15T09:08:01;11.20;99.90
7290;DHT22;63176;52.678;13.250;2023-04-15T09:10:27;11.20;99.90
7290;DHT22;63176;52.678;13.250;2023-04-15T09:12:54;11.20;99.90
7290;DHT22;63176;52.678;13.250;2023-04-15T09:15:20;11.30;99.90
7290;DHT22;63176;52.678;13.250;2023-04-15T09:17:47;11.20;99.90
7290;DHT22;63176;52.678;13.250;2023-04-15T09:20:14;11.30;99.90
7290;DHT22;63176;52.678;13.250;2023-04-15T09:22:42;11.30;99.90
7290;DHT22;63176;52.678;13.250;2023-04-15T09:27:54;11.30;99.90
7290;DHT22;63176;52.678;13.250;2023-04-15T09:30:20;11.20;99.90
7290;DHT22;63176;52.678;13.250;2023-04-15T09:35:20;11.30;99.90
7290;DHT22;63176;52.678;13.250;2023-04-15T09:37:47;11.30;99.90
7290;DHT22;63176;52.678;13.250;2023-04-15T09:40:13;11.20;99.90
7290;DHT22;63176;52.678;13.250;2023-04-15T09:42:54;11.30;99.90
7290;DHT22;63176;52.678;13.250;2023-04-15T09:45:21;11.40;99.90
7290;DHT22;63176;52.678;13.250;2023-04-15T09:47:47;11.40;99.90
7290;DHT22;63176;52.678;13.250;2023-04-15T09:50:12;11.40;99.90
7290;DHT22;63176;52.678;13.250;2023-04-15T09:52:43;11.40;99.90
7290;DHT22;63176;52.678;13.250;2023-04-15T09:55:10;11.40;99.90
7290;DHT22;63176;52.678;13.250;2023-04-15T09:57:38;11.50;99.90
7290;DHT22;63176;52.678;13.250;2023-04-15T10:00:07;11.50;99.90
7290;DHT22;63176;52.678;13.250;2023-04-15T10:02:34;11.50;99.90
7290;DHT22;63176;52.678;13.250;2023-04-15T10:05:01;11.50;99.90
7290;DHT22;63176;52.678;13.250;2023-04-15T10:07:27;11.50;99.90
7290;DHT22;63176;52.678;13.250;2023-04-15T10:09:54;11.40;99.90
7290;DHT22;63176;52.678;13.250;2023-04-15T10:12:21;11.40;99.90
7290;DHT22;63176;52.678;13.250;2023-04-15T10:14:51;11.50;99.90
7290;DHT22;63176;52.678;13.250;2023-04-15T10:17:21;11.40;99.90
7290;DHT22;63176;52.678;13.250;2023-04-15T10:19:47;11.40;99.90
7290;DHT22;63176;52.678;13.250;2023-04-15T10:22:14;11.40;99.90
7290;DHT22;63176;52.678;13.250;2023-04-15T10:24:40;11.30;99.90
7290;DHT22;63176;52.678;13.250;2023-04-15T10:27:07;11.30;99.90
7290;DHT22;63176;52.678;13.250;2023-04-15T10:29:33;11.30;99.90
7290;DHT22;63176;52.678;13.250;2023-04-15T10:32:00;11.30;99.90
7290;DHT22;63176;52.678;13.250;2023-04-15T10:34:26;11.30;99.90
7290;DHT22;63176;52.678;13.250;2023-04-15T10:36:56;11.30;99.90
7290;DHT22;63176;52.678;13.250;2023-04-15T10:42:11;11.40;99.90
7290;DHT22;63176;52.678;13.250;2023-04-15T10:44:40;11.40;99.90
7290;DHT22;63176;52.678;13.250;2023-04-15T10:47:11;11.40;99.90
7290;DHT22;63176;52.678;13.250;2023-04-15T10:49:48;11.40;99.90
7290;DHT22;63176;52.678;13.250;2023-04-15T10:52:15;11.30;99.90
7290;DHT22;63176;52.678;13.250;2023-04-15T10:54:42;11.40;99.90
7290;DHT22;63176;52.678;13.250;2023-04-15T10:57:20;11.40;99.90
7290;DHT22;63176;52.678;13.250;2023-04-15T11:00:08;11.40;99.90
7290;DHT22;63176;52.678;13.250;2023-04-15T11:02:51;11.40;99.90
7290;DHT22;63176;52.678;13.250;2023-04-15T11:05:18;11.40;99.90
7290;DHT22;63176;52.678;13.250;2023-04-15T11:07:53;11.40;99.90
7290;DHT22;63176;52.678;13.250;2023-04-15T11:12:58;11.40;99.90
7290;DHT22;63176;52.678;13.250;2023-04-15T11:15:42;11.40;99.90
7290;DHT22;63176;52.678;13.250;2023-04-15T11:18:14;11.40;99.90
7290;DHT22;63176;52.678;13.250;2023-04-15T11:20:45;11.40;99.90
7290;DHT22;63176;52.678;13.250;2023-04-15T11:23:12;11.40;99.90
7290;DHT22;63176;52.678;13.250;2023-04-15T11:25:39;11.40;99.90
7290;DHT22;63176;52.678;13.250;2023-04-15T11:28:05;11.40;99.90
7290;DHT22;63176;52.678;13.250;2023-04-15T11:30:33;11.40;99.90
7290;DHT22;63176;52.678;13.250;2023-04-15T11:33:04;11.40;99.90
7290;DHT22;63176;52.678;13.250;2023-04-15T11:35:31;11.40;99.90
7290;DHT22;63176;52.678;13.250;2023-04-15T11:37:56;11.40;99.90
7290;DHT22;63176;52.678;13.250;2023-04-15T11:40:24;11.40;99.90
7290;DHT22;63176;52.678;13.250;2023-04-15T11:43:09;11.40;99.90
7290;DHT22;63176;52.678;13.250;2023-04-15T11:45:36;11.40;99.90
7290;DHT22;63176;52.678;13.250;2023-04-15T11:48:09;11.40;99.90
7290;DHT22;63176;52.678;13.250;2023-04-15T11:50:36;11.40;99.90
7290;DHT22;63176;52.678;13.250;2023-04-15T11:53:03;11.40;99.90
7290;DHT22;63176;52.678;13.250;2023-04-15T11:55:30;11.40;99.90
7290;DHT22;63176;52.678;13.250;2023-04-15T11:58:08;11.40;99.90
7290;DHT22;63176;52.678;13.250;2023-04-15T12:00:34;11.40;99.90
7290;DHT22;63176;52.678;13.250;2023-04-15T12:03:45;11.40;99.90
7290;DHT22;63176;52.678;13.250;2023-04-15T12:06:11;11.40;99.90
7290;DHT22;63176;52.678;13.250;2023-04-15T12:08:57;11.30;99.90
7290;DHT22;63176;52.678;13.250;2023-04-15T12:14:09;11.30;99.90
7290;DHT22;63176;52.678;13.250;2023-04-15T12:16:37;11.30;99.90
7290;DHT22;63176;52.678;13.250;2023-04-15T12:19:05;11.30;99.90
7290;DHT22;63176;52.678;13.250;2023-04-15T12:21:36;11.30;99.90
7290;DHT22;63176;52.678;13.250;2023-04-15T12:24:04;11.30;99.90
7290;DHT22;63176;52.678;13.250;2023-04-15T12:26:45;11.20;99.90
7290;DHT22;63176;52.678;13.250;2023-04-15T12:29:12;11.20;99.90
7290;DHT22;63176;52.678;13.250;2023-04-15T12:31:50;11.20;99.90
7290;DHT22;63176;52.678;13.250;2023-04-15T12:34:16;11.20;99.90
7290;DHT22;63176;52.678;13.250;2023-04-15T12:36:42;11.20;99.90
7290;DHT22;63176;52.678;13.250;2023-04-15T12:39:08;11.20;99.90
7290;DHT22;63176;52.678;13.250;2023-04-15T12:41:33;11.20;99.90
7290;DHT22;63176;52.678;13.250;2023-04-15T12:43:59;11.20;99.90
7290;DHT22;63176;52.678;13.250;2023-04-15T12:46:26;11.20;99.90
7290;DHT22;63176;52.678;13.250;2023-04-15T12:48:52;11.20;99.90
7290;DHT22;63176;52.678;13.250;2023-04-15T12:51:18;11.20;99.90
7290;DHT22;63176;52.678;13.250;2023-04-15T12:53:45;11.20;99.90
7290;DHT22;63176;52.678;13.250;2023-04-15T12:56:12;11.30;99.90
7290;DHT22;63176;52.678;13.250;2023-04-15T12:58:37;11.30;99.90
7290;DHT22;63176;52.678;13.250;2023-04-15T13:01:03;11.30;99.90
7290;DHT22;63176;52.678;13.250;2023-04-15T13:03:29;11.30;99.90
7290;DHT22;63176;52.678;13.250;2023-04-15T13:05:55;11.40;99.90
7290;DHT22;63176;52.678;13.250;2023-04-15T13:08:22;11.40;99.90
7290;DHT22;63176;52.678;13.250;2023-04-15T13:10:47;11.50;99.90
7290;DHT22;63176;52.678;13.250;2023-04-15T13:13:13;11.50;99.90
7290;DHT22;63176;52.678;13.250;2023-04-15T13:15:39;11.50;99.90
7290;DHT22;63176;52.678;13.250;2023-04-15T13:18:06;11.50;99.90
7290;DHT22;63176;52.678;13.250;2023-04-15T13:20:31;11.50;99.90
7290;DHT22;63176;52.678;13.250;2023-04-15T13:22:57;11.50;99.90
7290;DHT22;63176;52.678;13.250;2023-04-15T13:25:22;11.50;99.90
7290;DHT22;63176;52.678;13.250;2023-04-15T13:27:49;11.50;99.90
7290;DHT22;63176;52.678;13.250;2023-04-15T13:30:14;11.50;99.90
7290;DHT22;63176;52.678;13.250;2023-04-15T13:32:40;11.50;99.90
7290;DHT22;63176;52.678;13.250;2023-04-15T13:35:06;11.50;99.90
7290;DHT22;63176;52.678;13.250;2023-04-15T13:37:31;11.40;99.90
7290;DHT22;63176;52.678;13.250;2023-04-15T13:39:57;11.40;99.90
7290;DHT22;63176;52.678;13.250;2023-04-15T13:42:23;11.40;99.90
7290;DHT22;63176;52.678;13.250;2023-04-15T13:44:49;11.50;99.90
7290;DHT22;63176;52.678;13.250;2023-04-15T13:47:16;11.50;99.90
7290;DHT22;63176;52.678;13.250;2023-04-15T13:49:42;11.40;99.90
7290;DHT22;63176;52.678;13.250;2023-04-15T13:52:08;11.40;99.90
7290;DHT22;63176;52.678;13.250;2023-04-15T13:54:34;11.40;99.90
7290;DHT22;63176;52.678;13.250;2023-04-15T13:56:59;11.40;99.90
7290;DHT22;63176;52.678;13.250;2023-04-15T13:59:26;11.40;99.90
7290;DHT22;63176;52.678;13.250;2023-04-15T14:01:51;11.30;99.90
7290;DHT22;63176;52.678;13.250;2023-04-15T14:04:17;11.40;99.90
7290;DHT22;63176;52.678;13.250;2023-04-15T14:06:43;11.30;99.90
7290;DHT22;63176;52.678;13.250;2023-04-15T14:09:09;11.30;99.90
7290;DHT22;63176;52.678;13.250;2023-04-15T14:11:36;11.30;99.90
7290;DHT22;63176;52.678;13.250;2023-04-15T14:14:02;11.30;99.90
7290;DHT22;63176;52.678;13.250;2023-04-15T14:16:28;11.30;99.90
7290;DHT22;63176;52.678;13.250;2023-04-15T14:18:53;11.20;99.90
7290;DHT22;63176;52.678;13.250;2023-04-15T14:21:20;11.20;99.90
7290;DHT22;63176;52.678;13.250;2023-04-15T14:23:45;11.20;99.90
7290;DHT22;63176;52.678;13.250;2023-04-15T14:26:11;11.20;99.90
7290;DHT22;63176;52.678;13.250;2023-04-15T14:28:38;11.20;99.90
7290;DHT22;63176;52.678;13.250;2023-04-15T14:31:03;11.10;99.90
7290;DHT22;63176;52.678;13.250;2023-04-15T14:33:29;11.10;99.90
7290;DHT22;63176;52.678;13.250;2023-04-15T14:35:55;11.10;99.90
7290;DHT22;63176;52.678;13.250;2023-04-15T14:38:20;11.10;99.90
7290;DHT22;63176;52.678;13.250;2023-04-15T14:40:47;11.10;99.90
7290;DHT22;63176;52.678;13.250;2023-04-15T14:43:12;11.10;99.90
7290;DHT22;63176;52.678;13.250;2023-04-15T14:45:38;11.10;99.90
7290;DHT22;63176;52.678;13.250;2023-04-15T14:48:04;11.10;99.90
7290;DHT22;63176;52.678;13.250;2023-04-15T14:50:31;11.10;99.90
7290;DHT22;63176;52.678;13.250;2023-04-15T14:52:57;11.10;99.90
7290;DHT22;63176;52.678;13.250;2023-04-15T14:55:23;11.10;99.90
7290;DHT22;63176;52.678;13.250;2023-04-15T14:57:49;11.30;99.90
7290;DHT22;63176;52.678;13.250;2023-04-15T15:00:14;11.00;99.90
7290;DHT22;63176;52.678;13.250;2023-04-15T15:02:40;11.00;99.90
7290;DHT22;63176;52.678;13.250;2023-04-15T15:05:08;11.00;99.90
7290;DHT22;63176;52.678;13.250;2023-04-15T15:07:34;11.00;99.90
7290;DHT22;63176;52.678;13.250;2023-04-15T15:10:01;11.00;99.90
7290;DHT22;63176;52.678;13.250;2023-04-15T15:12:27;11.00;99.90
7290;DHT22;63176;52.678;13.250;2023-04-15T15:14:54;11.00;99.90
7290;DHT22;63176;52.678;13.250;2023-04-15T15:17:20;11.00;99.90
7290;DHT22;63176;52.678;13.250;2023-04-15T15:19:46;11.00;99.90
7290;DHT22;63176;52.678;13.250;2023-04-15T15:22:11;11.00;99.90
7290;DHT22;63176;52.678;13.250;2023-04-15T15:24:37;11.00;99.90
7290;DHT22;63176;52.678;13.250;2023-04-15T15:27:02;11.00;99.90
7290;DHT22;63176;52.678;13.250;2023-04-15T15:29:28;11.00;99.90
7290;DHT22;63176;52.678;13.250;2023-04-15T15:31:54;11.00;99.90
7290;DHT22;63176;52.678;13.250;2023-04-15T15:34:19;11.00;99.90
7290;DHT22;63176;52.678;13.250;2023-04-15T15:36:45;11.00;99.90
7290;DHT22;63176;52.678;13.250;2023-04-15T15:39:11;11.00;99.90
7290;DHT22;63176;52.678;13.250;2023-04-15T15:41:36;11.00;99.90
7290;DHT22;63176;52.678;13.250;2023-04-15T15:44:02;11.00;99.90
7290;DHT22;63176;52.678;13.250;2023-04-15T15:46:28;11.00;99.90
7290;DHT22;63176;52.678;13.250;2023-04-15T15:48:56;11.00;99.90
7290;DHT22;63176;52.678;13.250;2023-04-15T15:51:22;11.00;99.90